Time;durP1;ratioP1;P1;durP2;ratioP2;P2;SDS_P1;SDS_P2;PMS_P1;PMS_P2;Temp;Humidity;BMP_temperature;BMP_pressure;BME280_temperature;BME280_humidity;BME280_pressure;Samples;Min_cycle;Max_cycle;Signal;HPM_P1;HPM_P2
2022/10/26 00:01:09;;;;;;;11.30;3.13;;;;;;;24.06;44.89;100560.34;5014479;28;20085;-57
2022/10/26 00:03:39;;;;;;;6.50;2.40;;;;;;;24.05;45.05;100576.94;5014478;28;20463;-58
2022/10/26 00:06:11;;;;;;;10.63;2.90;;;;;;;24.05;44.91;100575.16;4996866;28;20050;-57
2022/10/26 00:08:42;;;;;;;8.35;2.88;;;;;;;24.06;44.80;100574.31;5014032;28;20034;-58
2022/10/26 00:11:12;;;;;;;7.45;2.75;;;;;;;24.06;44.90;100582.16;5014358;28;20380;-58
2022/10/26 00:13:41;;;;;;;7.22;2.42;;;;;;;24.11;44.79;100583.09;5013719;28;20022;-57
2022/10/26 00:16:12;;;;;;;8.57;3.13;;;;;;;24.03;44.87;100571.66;5013958;28;20029;-58
2022/10/26 00:18:40;;;;;;;9.23;3.03;;;;;;;24.02;45.06;100575.16;5014548;28;20080;-54
2022/10/26 00:21:09;;;;;;;7.13;2.72;;;;;;;23.93;44.88;100559.34;4996800;28;20030;-57
2022/10/26 00:23:38;;;;;;;9.50;3.00;;;;;;;24.02;45.19;100580.38;5013937;28;20026;-56
2022/10/26 00:26:07;;;;;;;8.80;2.83;;;;;;;24.03;44.80;100589.13;5013813;28;20025;-55
2022/10/26 00:28:36;;;;;;;8.48;2.72;;;;;;;23.98;45.16;100586.50;5014187;28;20081;-57
2022/10/26 00:31:07;;;;;;;9.98;2.28;;;;;;;24.06;44.69;100590.03;5014041;28;20080;-55
2022/10/26 00:33:35;;;;;;;8.40;2.97;;;;;;;24.01;44.91;100596.09;4996586;28;20131;-57
2022/10/26 00:36:04;;;;;;;6.63;2.58;;;;;;;23.96;44.80;100593.44;5013678;28;20030;-57
2022/10/26 00:38:33;;;;;;;9.70;3.05;;;;;;;24.01;44.93;100593.50;5013497;28;20475;-57
2022/10/26 00:41:02;;;;;;;9.05;3.05;;;;;;;23.98;45.13;100599.59;5013993;28;20036;-56
2022/10/26 00:43:30;;;;;;;8.88;2.67;;;;;;;23.97;45.11;100603.94;5013795;28;20363;-57
2022/10/26 00:46:00;;;;;;;7.57;2.35;;;;;;;23.89;45.12;100584.66;5013645;28;20065;-56
2022/10/26 00:48:32;;;;;;;11.02;3.28;;;;;;;24.02;44.67;100598.72;5013590;28;20026;-56
2022/10/26 00:51:03;;;;;;;8.77;2.55;;;;;;;23.99;45.17;100600.44;4996354;28;20541;-56
2022/10/26 00:53:33;;;;;;;9.40;2.83;;;;;;;23.96;45.16;100599.56;5013801;28;20129;-57
2022/10/26 00:56:02;;;;;;;8.90;2.28;;;;;;;23.94;45.26;100596.03;5013521;28;20085;-57
2022/10/26 00:58:31;;;;;;;10.25;2.60;;;;;;;23.98;44.84;100599.59;5013448;28;20021;-57
2022/10/26 01:01:00;;;;;;;9.88;3.00;;;;;;;23.93;45.35;100596.03;5013192;28;20080;-58
2022/10/26 01:03:28;;;;;;;9.27;2.72;;;;;;;23.95;44.95;100599.53;5013332;28;20467;-57
2022/10/26 01:05:58;;;;;;;8.13;2.20;;;;;;;23.87;44.99;100588.09;4996032;28;20050;-56
2022/10/26 01:08:27;;;;;;;9.05;2.63;;;;;;;23.98;45.13;100604.84;4996188;28;20596;-56
2022/10/26 01:10:57;;;;;;;8.38;2.88;;;;;;;23.94;45.15;100616.13;5012844;28;20048;-56
2022/10/26 01:13:28;;;;;;;8.00;2.28;;;;;;;23.92;45.03;100600.38;5013356;28;20402;-57
2022/10/26 01:16:22;;;;;;;7.93;2.33;;;;;;;23.93;45.28;100607.34;5013128;28;20386;-57
2022/10/26 01:19:13;;;;;;;12.02;3.20;;;;;;;23.89;45.03;100610.84;4988960;28;20475;-58
2022/10/26 01:21:59;;;;;;;8.57;2.13;;;;;;;23.87;45.46;100615.19;5005043;28;20038;-57
2022/10/26 01:24:50;;;;;;;8.48;2.17;;;;;;;23.88;45.18;100616.06;5013130;28;20403;-58
2022/10/26 01:27:37;;;;;;;7.05;2.42;;;;;;;23.89;45.17;100612.56;4988263;28;20034;-57
2022/10/26 01:30:27;;;;;;;11.35;3.40;;;;;;;23.87;45.19;100612.56;5003991;28;20054;-57
2022/10/26 01:33:15;;;;;;;9.38;3.25;;;;;;;23.94;45.32;100614.34;4995618;28;20026;-58
2022/10/26 01:35:51;;;;;;;7.00;2.33;;;;;;;23.91;45.35;100616.94;5013115;28;20022;-57
2022/10/26 01:38:57;;;;;;;10.52;2.88;;;;;;;23.91;44.98;100627.44;5013171;28;20407;-58
2022/10/26 01:41:39;;;;;;;8.10;2.50;;;;;;;23.88;45.13;100622.19;5010422;28;20033;-58
2022/10/26 01:44:18;;;;;;;11.13;2.95;;;;;;;23.85;45.58;100616.91;4979378;28;20497;-55
2022/10/26 01:46:49;;;;;;;8.18;2.58;;;;;;;23.89;45.35;100615.19;4995685;28;20033;-57
2022/10/26 01:49:21;;;;;;;10.35;2.70;;;;;;;23.87;45.14;100617.81;4995787;28;20026;-57
2022/10/26 01:51:50;;;;;;;10.95;3.30;;;;;;;23.90;45.14;100622.19;5012750;28;20022;-57
2022/10/26 01:54:19;;;;;;;9.32;2.67;;;;;;;23.88;45.50;100619.56;4995744;28;20026;-55
2022/10/26 01:56:52;;;;;;;13.43;3.40;;;;;;;23.88;45.26;100621.28;5012351;28;20092;-58
2022/10/26 01:59:35;;;;;;;9.40;2.22;;;;;;;23.84;45.46;100623.03;4995904;28;20026;-58
2022/10/26 02:02:34;;;;;;;12.27;2.78;;;;;;;23.82;45.34;100614.28;4995449;28;20041;-57
2022/10/26 02:05:30;;;;;;;9.13;2.63;;;;;;;23.90;45.22;100611.72;5002062;28;20042;-58
2022/10/26 02:08:10;;;;;;;;;;;;;;;23.96;45.22;100612.66;4995867;28;20478;-58
2022/10/26 02:10:47;;;;;;;9.27;2.65;;;;;;;23.90;45.34;100612.59;4995750;28;19916;-58
2022/10/26 02:13:18;;;;;;;8.07;3.17;;;;;;;23.92;45.22;100621.31;5012504;28;20467;-58
2022/10/26 02:16:06;;;;;;;5.82;2.20;;;;;;;23.93;45.22;100611.75;5012345;28;20092;-58
2022/10/26 02:18:43;;;;;;;5.70;1.98;;;;;;;23.90;44.93;100619.56;5012674;28;20030;-57
2022/10/26 02:21:16;;;;;;;9.48;2.33;;;;;;;23.89;45.12;100623.06;5013296;28;20037;-57
2022/10/26 02:23:46;;;;;;;10.60;2.85;;;;;;;23.88;45.30;100616.06;4995034;28;20026;-57
2022/10/26 02:26:17;;;;;;;8.38;2.70;;;;;;;23.88;45.23;100623.91;4995262;28;20030;-56
2022/10/26 02:28:48;;;;;;;8.18;2.45;;;;;;;23.88;44.92;100622.19;4995143;28;20033;-56
2022/10/26 02:31:18;;;;;;;7.32;2.38;;;;;;;23.89;45.12;100623.06;4995620;28;20104;-55
2022/10/26 02:33:49;;;;;;;8.27;2.17;;;;;;;23.90;45.39;100619.56;5012662;28;20030;-57
2022/10/26 02:36:22;;;;;;;8.18;2.05;;;;;;;23.83;45.41;100619.50;5012050;28;20390;-53
2022/10/26 02:38:52;;;;;;;8.15;2.50;;;;;;;23.88;45.09;100627.44;4998937;28;20072;-57
2022/10/26 02:41:22;;;;;;;8.52;2.35;;;;;;;23.87;45.57;100627.41;4998980;28;20026;-58
2022/10/26 02:44:00;;;;;;;7.57;2.22;;;;;;;23.85;45.62;100634.38;5016207;28;20026;-56
2022/10/26 02:46:29;;;;;;;7.32;2.20;;;;;;;23.88;45.42;100637.00;4998440;28;20025;-57
2022/10/26 02:48:58;;;;;;;6.28;2.13;;;;;;;23.88;45.29;100631.78;4998874;28;20030;-57
2022/10/26 02:51:39;;;;;;;7.65;2.15;;;;;;;23.86;45.20;100630.88;5016154;28;20033;-57
2022/10/26 02:54:27;;;;;;;7.50;2.15;;;;;;;23.89;45.52;100634.41;5015556;28;20105;-56
2022/10/26 02:56:59;;;;;;;11.95;3.03;;;;;;;23.91;45.29;100634.41;5006607;28;20111;-55
2022/10/26 02:59:31;;;;;;;11.48;3.45;;;;;;;23.89;45.19;100639.66;5015847;28;20033;-56
2022/10/26 03:01:59;;;;;;;10.38;2.10;;;;;;;23.87;45.20;100641.38;5015707;28;20096;-57
2022/10/26 03:04:32;;;;;;;9.88;2.28;;;;;;;23.85;45.41;100642.22;4981179;28;20132;-55
2022/10/26 03:07:01;;;;;;;9.35;2.85;;;;;;;23.91;45.50;100640.53;5015582;28;20037;-56
2022/10/26 03:09:30;;;;;;;9.38;2.38;;;;;;;23.90;45.60;100653.63;5015673;28;20072;-57
2022/10/26 03:11:58;;;;;;;9.23;2.78;;;;;;;23.91;45.48;100655.38;5015199;28;20037;-57
2022/10/26 03:14:27;;;;;;;5.60;1.88;;;;;;;23.89;45.34;100649.25;5015419;28;20030;-56
2022/10/26 03:16:55;;;;;;;7.10;2.38;;;;;;;23.87;45.57;100651.88;5015325;28;20471;-58
2022/10/26 03:19:24;;;;;;;9.27;2.47;;;;;;;23.86;45.29;100644.88;5015555;28;20533;-56
2022/10/26 03:21:53;;;;;;;6.53;2.22;;;;;;;23.96;45.50;100653.69;5015255;28;20037;-56
2022/10/26 03:24:21;;;;;;;8.45;2.50;;;;;;;23.94;45.53;100650.19;5015296;28;20434;-57
2022/10/26 03:26:50;;;;;;;8.88;2.78;;;;;;;23.88;45.20;100650.09;5015058;28;20061;-56
2022/10/26 03:29:18;;;;;;;10.88;3.70;;;;;;;23.93;45.22;100653.66;5015139;28;20022;-57
2022/10/26 03:31:47;;;;;;;8.77;2.30;;;;;;;23.90;45.44;100656.25;5014836;28;20033;-58
2022/10/26 03:34:16;;;;;;;9.57;2.60;;;;;;;23.88;45.19;100637.91;5014653;28;20029;-54
2022/10/26 03:36:44;;;;;;;9.25;2.72;;;;;;;23.93;45.58;100658.91;4997062;28;20022;-57
2022/10/26 03:39:13;;;;;;;10.50;2.63;;;;;;;23.94;45.48;100663.28;5015091;28;20069;-57
2022/10/26 03:41:43;;;;;;;8.15;2.65;;;;;;;23.91;45.55;100653.63;5014892;28;20120;-57
2022/10/26 03:44:11;;;;;;;6.70;2.08;;;;;;;23.97;45.20;100665.97;5014730;28;20475;-58
2022/10/26 03:46:40;;;;;;;7.50;2.10;;;;;;;23.91;45.39;100658.00;5014779;28;20057;-57
2022/10/26 03:49:09;;;;;;;7.38;2.30;;;;;;;23.95;45.50;100660.66;5013619;28;20026;-57
2022/10/26 03:51:37;;;;;;;10.60;3.00;;;;;;;23.97;45.54;100660.72;5014463;28;20034;-57
2022/10/26 03:54:06;;;;;;;8.90;2.38;;;;;;;23.93;45.12;100656.28;5014683;28;20021;-58
2022/10/26 03:56:35;;;;;;;7.88;2.00;;;;;;;23.95;45.53;100659.78;5014845;28;20030;-58
2022/10/26 03:59:03;;;;;;;11.52;2.63;;;;;;;23.99;45.57;100658.09;5014697;28;20041;-58
2022/10/26 04:01:32;;;;;;;12.43;3.88;;;;;;;23.94;45.21;100660.66;5014648;28;20467;-57
2022/10/26 04:04:00;;;;;;;8.15;2.75;;;;;;;23.94;45.15;100661.50;5014589;28;20030;-57
2022/10/26 04:06:29;;;;;;;6.13;1.92;;;;;;;24.00;45.35;100672.94;5014160;28;20165;-58
2022/10/26 04:09:01;;;;;;;9.63;2.50;;;;;;;23.94;45.27;100653.66;5015078;28;20029;-58
2022/10/26 04:11:30;;;;;;;8.57;2.50;;;;;;;23.93;45.35;100666.75;5014641;28;20072;-58
2022/10/26 04:13:59;;;;;;;8.07;2.13;;;;;;;23.97;45.30;100673.81;5014464;28;20040;-56
2022/10/26 04:16:28;;;;;;;9.02;2.63;;;;;;;23.95;45.32;100668.50;5014326;28;20025;-57
2022/10/26 04:18:56;;;;;;;8.32;2.30;;;;;;;23.91;45.32;100668.47;5014376;28;20079;-58
2022/10/26 04:21:25;;;;;;;10.65;2.92;;;;;;;23.98;45.38;100667.72;5014537;28;20029;-57
2022/10/26 04:23:54;;;;;;;12.25;2.90;;;;;;;24.01;45.44;100672.94;5014610;28;20046;-55
2022/10/26 04:26:22;;;;;;;9.32;2.38;;;;;;;23.96;45.46;100672.94;5013744;28;20110;-57
2022/10/26 04:28:51;;;;;;;6.10;2.22;;;;;;;23.94;45.45;100679.84;5013960;28;20539;-55
2022/10/26 04:31:19;;;;;;;8.48;2.25;;;;;;;23.92;45.18;100680.72;5013938;28;20530;-55
2022/10/26 04:33:48;;;;;;;7.60;2.15;;;;;;;23.90;45.33;100683.34;5013948;28;20152;-56
2022/10/26 04:36:16;;;;;;;10.48;2.53;;;;;;;23.95;45.52;100699.09;5013542;28;20026;-57
2022/10/26 04:38:45;;;;;;;6.30;1.70;;;;;;;23.93;45.24;100690.34;4996475;28;20026;-56
2022/10/26 04:41:13;;;;;;;5.68;1.90;;;;;;;23.89;45.47;100686.81;5014073;28;20037;-57
2022/10/26 04:43:42;;;;;;;8.02;2.05;;;;;;;23.95;45.36;100699.94;5013547;28;20030;-54
2022/10/26 04:46:12;;;;;;;7.70;2.10;;;;;;;23.97;45.11;100703.50;5013735;28;20021;-57
2022/10/26 04:48:41;;;;;;;6.47;2.00;;;;;;;23.91;45.40;100711.25;5013724;28;20438;-57
2022/10/26 04:51:10;;;;;;;8.25;2.20;;;;;;;23.97;45.21;100707.88;5013625;28;20501;-57
2022/10/26 04:53:39;;;;;;;6.95;2.00;;;;;;;23.98;45.16;100709.63;5013225;28;20033;-53
2022/10/26 04:56:08;;;;;;;8.85;2.17;;;;;;;23.95;45.33;100717.44;4996207;28;20037;-56
2022/10/26 04:58:37;;;;;;;7.43;2.10;;;;;;;23.92;45.77;100713.03;5013767;28;20026;-57
2022/10/26 05:01:05;;;;;;;7.95;2.60;;;;;;;23.97;45.62;100720.97;5013425;28;20057;-57
2022/10/26 05:03:34;;;;;;;7.15;2.35;;;;;;;23.92;45.45;100718.25;5013099;28;20030;-57
2022/10/26 05:06:01;;;;;;;9.60;2.83;;;;;;;23.87;45.73;100725.22;5013472;28;20138;-56
2022/10/26 05:08:30;;;;;;;7.70;1.80;;;;;;;23.82;45.56;100724.28;4996170;28;20034;-56
2022/10/26 05:10:59;;;;;;;8.60;2.05;;;;;;;23.87;45.83;100725.22;5013575;28;20101;-56
2022/10/26 05:13:26;;;;;;;11.57;2.97;;;;;;;23.89;45.80;100726.13;5013205;28;20447;-55
2022/10/26 05:15:54;;;;;;;11.60;2.42;;;;;;;23.75;45.53;100712.88;5013456;28;20022;-56
2022/10/26 05:18:23;;;;;;;8.85;2.33;;;;;;;23.91;45.75;100729.59;5013296;28;20087;-57
2022/10/26 05:20:53;;;;;;;8.98;2.42;;;;;;;23.85;45.68;100729.56;4995825;28;20460;-57
2022/10/26 05:23:22;;;;;;;9.57;2.92;;;;;;;23.93;45.64;100746.22;5013254;28;20125;-56
2022/10/26 05:25:51;;;;;;;7.15;2.00;;;;;;;23.89;45.84;100735.69;5013207;28;20101;-56
2022/10/26 05:28:19;;;;;;;10.20;2.63;;;;;;;23.94;45.66;100749.72;5013016;28;20041;-56
2022/10/26 05:30:48;;;;;;;9.45;2.60;;;;;;;23.88;45.79;100753.16;4996103;28;20026;-51
2022/10/26 05:33:16;;;;;;;7.78;2.20;;;;;;;23.87;45.77;100750.53;4995815;28;20032;-56
2022/10/26 05:35:45;;;;;;;10.18;2.63;;;;;;;23.86;45.59;100761.84;5012965;28;20034;-56
2022/10/26 05:38:16;;;;;;;7.28;2.20;;;;;;;23.88;45.93;100762.75;5013034;28;20026;-56
2022/10/26 05:40:50;;;;;;;5.25;2.17;;;;;;;23.86;45.69;100761.84;5013525;28;20033;-55
2022/10/26 05:43:19;;;;;;;11.17;2.23;;;;;;;23.89;45.50;100767.13;5012959;28;20045;-56
2022/10/26 05:45:49;;;;;;;10.00;2.90;;;;;;;23.89;45.53;100773.28;5013097;28;20045;-57
2022/10/26 05:48:18;;;;;;;12.88;3.28;;;;;;;23.94;45.38;100775.94;5012685;28;20057;-57
2022/10/26 05:50:47;;;;;;;9.85;2.47;;;;;;;23.94;45.79;100775.94;5012941;28;20472;-56
2022/10/26 05:53:15;;;;;;;11.52;2.85;;;;;;;23.89;45.49;100767.13;5012951;28;20033;-57
2022/10/26 05:55:44;;;;;;;11.52;3.20;;;;;;;23.85;45.60;100766.22;4995432;28;20088;-55
2022/10/26 05:58:14;;;;;;;8.25;2.22;;;;;;;23.87;45.95;100772.38;5013234;28;20026;-57
2022/10/26 06:01:10;;;;;;;9.98;2.55;;;;;;;23.81;46.28;100769.69;4995498;28;20088;-56
2022/10/26 06:04:01;;;;;;;10.18;3.00;;;;;;;23.82;45.80;100768.81;4975856;28;20038;-57
2022/10/26 06:06:37;;;;;;;9.90;2.90;;;;;;;23.88;45.63;100794.19;5012774;28;20045;-55
2022/10/26 06:09:06;;;;;;;9.02;2.75;;;;;;;23.95;45.41;100794.28;4995272;28;20032;-57
2022/10/26 06:11:35;;;;;;;8.55;2.47;;;;;;;23.88;45.69;100781.09;5012818;28;20030;-57
2022/10/26 06:14:03;;;;;;;13.48;3.03;;;;;;;23.97;45.38;100789.97;5016902;28;20018;-55
2022/10/26 06:16:54;;;;;;;9.35;2.72;;;;;;;23.96;45.59;100796.06;4998981;28;20033;-57
2022/10/26 06:19:45;;;;;;;11.15;2.60;;;;;;;23.93;45.34;100808.22;5010255;28;20045;-57
2022/10/26 06:22:36;;;;;;;10.15;3.22;;;;;;;23.91;45.49;100805.56;5008417;28;20471;-57
2022/10/26 06:25:25;;;;;;;11.50;3.10;;;;;;;23.90;45.60;100795.09;5008323;28;20045;-57
2022/10/26 06:28:02;;;;;;;9.75;2.78;;;;;;;24.00;45.52;100798.72;4999173;28;20041;-56
2022/10/26 06:30:31;;;;;;;6.32;2.28;;;;;;;23.99;45.18;100813.59;5016299;28;20508;-56
2022/10/26 06:33:00;;;;;;;8.65;2.53;;;;;;;23.99;45.18;100821.44;4998581;28;20034;-51
2022/10/26 06:35:48;;;;;;;8.57;2.47;;;;;;;24.02;45.56;100831.06;4998342;28;20070;-56
2022/10/26 06:38:20;;;;;;;12.07;2.50;;;;;;;23.92;45.80;100830.91;5006523;28;20046;-54
2022/10/26 06:40:52;;;;;;;9.27;2.80;;;;;;;24.00;45.64;100827.53;5015845;28;20124;-54
2022/10/26 06:43:40;;;;;;;9.32;2.83;;;;;;;23.87;45.68;100810.78;5015995;28;20506;-54
2022/10/26 06:46:29;;;;;;;7.72;2.35;;;;;;;23.93;45.66;100844.91;5015824;28;20331;-54
2022/10/26 06:49:01;;;;;;;12.85;3.42;;;;;;;23.96;45.42;100851.09;5015978;28;20427;-49
2022/10/26 06:51:30;;;;;;;11.02;2.55;;;;;;;23.97;45.75;100849.38;5016166;28;20026;-56
2022/10/26 06:54:13;;;;;;;8.15;2.30;;;;;;;24.04;45.59;100876.50;5015348;28;20038;-50
2022/10/26 06:56:41;;;;;;;9.30;2.38;;;;;;;24.05;45.18;100876.50;4998270;28;20029;-56
2022/10/26 06:59:17;;;;;;;7.00;2.00;;;;;;;23.97;45.42;100881.66;4998363;28;20033;-56
2022/10/26 07:01:46;;;;;;;8.80;2.30;;;;;;;24.01;45.50;100881.72;4998616;28;20029;-56
2022/10/26 07:04:14;;;;;;;6.05;2.05;;;;;;;23.99;45.24;100884.31;5015506;28;20037;-57
2022/10/26 07:06:42;;;;;;;8.07;2.60;;;;;;;23.86;45.24;100864.03;5015654;28;20053;-53
2022/10/26 07:09:11;;;;;;;7.93;2.35;;;;;;;23.94;45.36;100885.97;5015460;28;20467;-55
2022/10/26 07:11:39;;;;;;;8.10;2.60;;;;;;;23.94;45.34;100893.84;5015053;28;20034;-56
2022/10/26 07:14:08;;;;;;;10.10;2.55;;;;;;;23.76;45.66;100866.53;5014839;28;20095;-55
2022/10/26 07:16:36;;;;;;;9.55;2.63;;;;;;;23.97;45.62;100901.75;5015540;28;20030;-53
2022/10/26 07:19:05;;;;;;;9.40;2.80;;;;;;;23.84;45.36;100882.34;5015854;28;20033;-57
2022/10/26 07:21:34;;;;;;;5.13;1.90;;;;;;;23.97;45.58;100905.25;5015937;28;20560;-57
2022/10/26 07:24:02;;;;;;;6.93;2.08;;;;;;;23.94;45.66;100915.66;5015215;28;20034;-56
2022/10/26 07:26:31;;;;;;;8.50;2.50;;;;;;;23.95;45.50;100911.31;5015359;28;20053;-56
2022/10/26 07:28:59;;;;;;;8.38;2.90;;;;;;;23.94;45.74;100907.78;5015373;28;20025;-56
2022/10/26 07:31:28;;;;;;;6.40;2.08;;;;;;;23.95;45.42;100914.78;5015433;28;20030;-56
2022/10/26 07:33:56;;;;;;;7.95;1.95;;;;;;;23.92;45.67;100914.75;5014927;28;20084;-56
2022/10/26 07:36:25;;;;;;;9.10;2.15;;;;;;;23.90;45.39;100920.84;5014956;28;20022;-56
2022/10/26 07:38:53;;;;;;;9.27;2.15;;;;;;;23.91;45.35;100923.47;5015043;28;20049;-57
2022/10/26 07:41:23;;;;;;;5.65;1.80;;;;;;;23.93;45.28;100916.50;5015143;28;20030;-57
2022/10/26 07:43:51;;;;;;;6.03;2.05;;;;;;;23.96;45.21;100934.03;5014981;28;20113;-56
2022/10/26 07:46:20;;;;;;;9.13;2.00;;;;;;;23.96;45.62;100936.66;5014793;28;20390;-57
2022/10/26 07:48:49;;;;;;;9.27;2.60;;;;;;;23.89;45.51;100934.81;5014643;28;20410;-58
2022/10/26 07:51:17;;;;;;;8.27;2.15;;;;;;;23.93;45.67;100941.84;5014514;28;20026;-58
2022/10/26 07:53:46;;;;;;;7.95;2.20;;;;;;;23.93;45.39;100955.81;5014677;28;20026;-57
2022/10/26 07:56:15;;;;;;;5.53;1.88;;;;;;;23.95;45.48;100951.47;5014598;28;20517;-57
2022/10/26 07:58:44;;;;;;;10.20;2.60;;;;;;;24.00;45.28;100958.56;5014828;28;20026;-56
2022/10/26 08:01:14;;;;;;;9.40;2.65;;;;;;;24.05;45.26;100960.38;5013971;28;20045;-57
2022/10/26 08:03:43;;;;;;;6.28;2.10;;;;;;;24.05;45.35;100973.47;5014436;28;20463;-57
2022/10/26 08:06:12;;;;;;;6.32;2.08;;;;;;;24.03;45.56;100972.56;5014310;28;20517;-57
2022/10/26 08:08:40;;;;;;;6.72;2.25;;;;;;;24.06;45.43;100980.47;5014401;28;20475;-57
2022/10/26 08:11:09;;;;;;;7.75;2.30;;;;;;;24.05;45.56;100985.72;5014388;28;20434;-57
2022/10/26 08:13:38;;;;;;;7.85;2.55;;;;;;;23.99;45.56;100989.13;5014224;28;20032;-57
2022/10/26 08:16:06;;;;;;;8.05;2.20;;;;;;;24.00;45.45;101001.34;5014485;28;20482;-57
2022/10/26 08:18:34;;;;;;;10.05;2.58;;;;;;;23.99;45.61;100994.38;4996877;28;20084;-57
2022/10/26 08:21:08;;;;;;;7.63;2.47;;;;;;;24.00;45.40;101001.34;4997234;28;20101;-57
2022/10/26 08:23:36;;;;;;;9.82;2.78;;;;;;;24.04;45.11;101013.66;4996607;28;20030;-57
2022/10/26 08:26:05;;;;;;;7.93;2.25;;;;;;;23.94;45.38;100996.00;5014320;28;20100;-58
2022/10/26 08:28:34;;;;;;;8.35;2.78;;;;;;;24.02;45.44;101010.13;5014400;28;20040;-56
2022/10/26 08:31:02;;;;;;;7.47;2.08;;;;;;;24.06;45.51;101016.31;5014057;28;20538;-56
2022/10/26 08:33:31;;;;;;;9.38;2.30;;;;;;;24.02;45.27;101025.84;5014247;28;20029;-56
2022/10/26 08:36:01;;;;;;;10.13;2.25;;;;;;;24.07;45.31;101024.16;5013244;28;20029;-52
2022/10/26 08:38:30;;;;;;;9.63;2.25;;;;;;;24.11;45.14;101036.47;5014151;28;20034;-56
2022/10/26 08:40:59;;;;;;;8.10;2.35;;;;;;;24.18;45.24;101044.38;5013827;28;20080;-56
2022/10/26 08:43:49;;;;;;;6.40;2.20;;;;;;;24.18;45.24;101044.38;4996347;28;20026;-55
2022/10/26 08:46:25;;;;;;;6.32;1.95;;;;;;;24.16;45.25;101051.38;5013944;28;20076;-56
2022/10/26 08:49:01;;;;;;;7.70;2.47;;;;;;;24.12;45.30;101055.69;5014027;28;20017;-57
2022/10/26 08:51:34;;;;;;;9.13;2.58;;;;;;;24.12;45.30;101059.19;5013565;28;20030;-56
2022/10/26 08:54:40;;;;;;;6.20;2.28;;;;;;;24.07;45.74;101060.88;5013457;28;20033;-56
2022/10/26 08:57:28;;;;;;;11.48;2.78;;;;;;;24.12;45.64;101056.56;4993883;28;20038;-56
2022/10/26 09:00:00;;;;;;;7.63;2.42;;;;;;;24.12;45.57;101053.06;5013687;28;20042;-56
2022/10/26 09:02:29;;;;;;;9.07;2.55;;;;;;;24.14;45.71;101060.97;4996185;28;20033;-56
2022/10/26 09:04:59;;;;;;;7.90;2.63;;;;;;;24.08;45.42;101057.38;5013015;28;20067;-55
2022/10/26 09:07:49;;;;;;;9.50;2.45;;;;;;;24.17;45.56;101071.47;5013687;28;20364;-57
2022/10/26 09:10:29;;;;;;;9.15;2.97;;;;;;;24.17;45.32;101074.09;5004991;28;20513;-56
2022/10/26 09:13:19;;;;;;;6.72;2.13;;;;;;;24.16;45.33;101074.97;5013168;28;20022;-56
2022/10/26 09:16:11;;;;;;;9.73;2.50;;;;;;;24.14;45.63;101081.94;5004379;28;20045;-56
2022/10/26 09:19:04;;;;;;;8.77;2.50;;;;;;;24.14;45.81;101079.31;4987895;28;20510;-56
2022/10/26 09:22:07;;;;;;;9.32;2.67;;;;;;;24.14;45.75;101088.03;5005303;28;20046;-57
2022/10/26 09:24:39;;;;;;;8.38;2.45;;;;;;;24.14;45.63;101088.03;4989480;28;20034;-57
2022/10/26 09:27:28;;;;;;;7.40;2.22;;;;;;;24.19;45.42;101094.22;4995688;28;20107;-55
2022/10/26 09:29:59;;;;;;;7.95;2.60;;;;;;;24.14;45.78;101095.91;5013099;28;20213;-56
2022/10/26 09:32:43;;;;;;;7.80;2.05;;;;;;;24.15;45.49;101107.28;5012877;28;20091;-57
2022/10/26 09:35:33;;;;;;;6.68;2.40;;;;;;;24.11;45.68;101108.94;4995847;28;20030;-56
2022/10/26 09:38:14;;;;;;;10.23;2.08;;;;;;;24.09;45.64;101114.19;5005223;28;20120;-50
2022/10/26 09:40:54;;;;;;;6.05;2.00;;;;;;;24.10;45.57;101113.31;5012833;28;20559;-57
2022/10/26 09:43:29;;;;;;;10.48;2.55;;;;;;;24.12;45.89;101124.72;5012868;28;20100;-57
2022/10/26 09:45:58;;;;;;;6.13;2.50;;;;;;;24.20;45.78;101116.97;5013882;28;20524;-56
2022/10/26 09:48:46;;;;;;;11.05;3.03;;;;;;;24.22;45.72;101130.09;5017067;28;20072;-57
2022/10/26 09:51:16;;;;;;;7.47;2.33;;;;;;;24.23;45.59;101127.50;5008241;28;20100;-58
2022/10/26 09:53:45;;;;;;;7.00;2.47;;;;;;;24.16;45.87;101123.00;5016736;28;20057;-58
2022/10/26 09:56:15;;;;;;;7.25;2.35;;;;;;;24.15;45.89;101133.50;5017072;28;20050;-58
2022/10/26 09:58:45;;;;;;;8.68;2.47;;;;;;;24.15;45.79;101126.50;4999375;28;20087;-57
2022/10/26 10:01:33;;;;;;;8.88;2.38;;;;;;;24.17;45.92;101139.59;5016693;28;20030;-58
2022/10/26 10:04:12;;;;;;;9.82;2.78;;;;;;;24.17;45.91;101131.75;5016597;28;20030;-58
2022/10/26 10:06:42;;;;;;;11.02;2.35;;;;;;;24.20;46.02;101131.78;4999280;28;20487;-58
2022/10/26 10:09:14;;;;;;;9.73;2.60;;;;;;;24.23;45.67;101139.72;5016568;28;20026;-58
2022/10/26 10:11:56;;;;;;;13.48;2.90;;;;;;;24.18;45.67;101149.25;5015512;28;20037;-58
2022/10/26 10:14:34;;;;;;;11.05;2.67;;;;;;;24.17;46.07;101137.88;5016377;28;20037;-58
2022/10/26 10:17:04;;;;;;;10.32;2.28;;;;;;;24.23;45.58;101138.00;4999064;28;20379;-58
2022/10/26 10:19:34;;;;;;;7.25;2.47;;;;;;;24.25;45.60;101143.25;5016493;28;20026;-57
2022/10/26 10:22:12;;;;;;;8.05;2.38;;;;;;;24.23;45.72;101144.97;4999202;28;20042;-58
2022/10/26 10:24:42;;;;;;;7.57;2.42;;;;;;;24.19;45.92;101141.41;5016614;28;20080;-58
2022/10/26 10:27:15;;;;;;;7.10;2.25;;;;;;;24.23;45.88;101155.44;5016303;28;20539;-57
2022/10/26 10:29:45;;;;;;;9.38;2.47;;;;;;;24.21;46.07;101158.06;5016662;28;20088;-57
2022/10/26 10:32:32;;;;;;;10.50;2.88;;;;;;;24.23;46.06;101160.69;5016439;28;20037;-56
2022/10/26 10:35:02;;;;;;;10.75;3.13;;;;;;;24.31;45.68;101166.94;5015522;28;20030;-57
2022/10/26 10:37:32;;;;;;;8.88;2.58;;;;;;;24.28;45.94;101166.88;5016191;28;20034;-55
2022/10/26 10:40:05;;;;;;;9.20;2.47;;;;;;;24.30;45.97;101178.28;5016277;28;20463;-57
2022/10/26 10:42:35;;;;;;;9.57;2.63;;;;;;;24.31;45.91;101166.03;4999258;28;20116;-56
2022/10/26 10:45:04;;;;;;;7.10;2.25;;;;;;;24.32;45.73;101183.53;5016048;28;20110;-57
2022/10/26 10:47:35;;;;;;;6.60;2.10;;;;;;;24.30;45.87;101183.53;5016002;28;20360;-56
2022/10/26 10:50:08;;;;;;;10.80;2.83;;;;;;;24.25;45.87;101178.19;5015391;28;20084;-57
2022/10/26 10:52:37;;;;;;;11.38;3.05;;;;;;;24.28;45.96;101186.09;4998175;28;20482;-55
2022/10/26 10:55:14;;;;;;;7.70;2.67;;;;;;;24.24;46.11;101188.66;4982212;28;20034;-57
2022/10/26 10:58:01;;;;;;;8.40;2.33;;;;;;;24.26;46.20;101186.94;4998246;28;20030;-57
2022/10/26 11:00:32;;;;;;;11.07;2.58;;;;;;;24.26;45.93;101192.19;5005443;28;20038;-57
2022/10/26 11:03:23;;;;;;;13.20;3.15;;;;;;;24.19;46.06;101196.47;5015526;28;20030;-57
2022/10/26 11:06:04;;;;;;;10.02;2.58;;;;;;;24.21;46.38;101206.97;5007460;28;20048;-57
2022/10/26 11:08:59;;;;;;;9.90;2.42;;;;;;;24.23;46.59;101205.25;5015653;28;20069;-58
2022/10/26 11:11:40;;;;;;;12.07;2.88;;;;;;;24.19;46.39;101196.47;5014846;28;20033;-58
2022/10/26 11:14:10;;;;;;;9.35;2.25;;;;;;;24.30;46.50;101209.75;4998570;28;20030;-57
2022/10/26 11:16:43;;;;;;;9.00;3.20;;;;;;;24.32;46.46;101207.13;5015343;28;20040;-58
2022/10/26 11:19:20;;;;;;;7.57;2.50;;;;;;;24.28;46.45;101214.06;4998241;28;20360;-57
2022/10/26 11:21:53;;;;;;;9.00;2.97;;;;;;;24.34;46.55;101215.91;4997696;28;20455;-54
2022/10/26 11:24:25;;;;;;;10.98;3.22;;;;;;;24.33;46.46;101217.63;5015382;28;20037;-56
2022/10/26 11:26:56;;;;;;;6.18;2.10;;;;;;;24.30;46.39;101220.22;5015468;28;20482;-51
2022/10/26 11:29:34;;;;;;;10.35;2.70;;;;;;;24.31;46.43;101216.75;5015462;28;20030;-56
2022/10/26 11:32:13;;;;;;;6.63;2.13;;;;;;;24.31;46.35;101221.09;4997287;28;20022;-56
2022/10/26 11:35:05;;;;;;;7.85;2.63;;;;;;;24.32;46.21;101217.63;4998106;28;20041;-58
2022/10/26 11:37:46;;;;;;;8.85;2.60;;;;;;;24.32;46.61;101226.38;5007800;28;20034;-57
2022/10/26 11:40:14;;;;;;;6.72;1.92;;;;;;;24.39;46.56;101225.59;5014964;28;20069;-55
2022/10/26 11:42:51;;;;;;;8.80;2.75;;;;;;;24.32;46.35;101226.38;5014956;28;20034;-57
2022/10/26 11:45:25;;;;;;;9.60;3.05;;;;;;;24.35;46.54;101222.91;5014772;28;20489;-58
2022/10/26 11:48:04;;;;;;;9.82;2.58;;;;;;;24.38;46.69;101223.84;5014846;28;20443;-58
2022/10/26 11:50:42;;;;;;;8.43;2.20;;;;;;;24.36;46.65;101228.16;5014795;28;20029;-56
2022/10/26 11:53:16;;;;;;;7.03;2.28;;;;;;;24.37;46.54;101222.06;5014619;28;20030;-57